sensor_id;sensor_type;location;lat;lon;timestamp;temperature;humidity
45108;DHT22;30869;51.188;6.556;2022-11-20T00:00:38;5.40;99.90
45108;DHT22;30869;51.188;6.556;2022-11-20T00:03:04;5.60;99.90
45108;DHT22;30869;51.188;6.556;2022-11-20T00:05:32;5.50;99.90
45108;DHT22;30869;51.188;6.556;2022-11-20T00:07:58;5.50;99.90
45108;DHT22;30869;51.188;6.556;2022-11-20T00:10:24;5.60;99.90
45108;DHT22;30869;51.188;6.556;2022-11-20T00:12:50;5.90;99.90
45108;DHT22;30869;51.188;6.556;2022-11-20T00:15:16;6.20;99.90
45108;DHT22;30869;51.188;6.556;2022-11-20T00:17:42;6.20;99.90
45108;DHT22;30869;51.188;6.556;2022-11-20T00:20:08;6.00;99.90
45108;DHT22;30869;51.188;6.556;2022-11-20T00:22:33;5.90;99.90
45108;DHT22;30869;51.188;6.556;2022-11-20T00:24:59;5.80;99.90
45108;DHT22;30869;51.188;6.556;2022-11-20T00:27:25;5.70;99.90
45108;DHT22;30869;51.188;6.556;2022-11-20T00:29:51;5.70;99.90
45108;DHT22;30869;51.188;6.556;2022-11-20T00:32:16;5.90;99.90
45108;DHT22;30869;51.188;6.556;2022-11-20T00:34:42;5.90;99.90
45108;DHT22;30869;51.188;6.556;2022-11-20T00:37:08;5.80;99.90
45108;DHT22;30869;51.188;6.556;2022-11-20T00:39:34;5.90;99.90
45108;DHT22;30869;51.188;6.556;2022-11-20T00:42:00;5.70;99.90
45108;DHT22;30869;51.188;6.556;2022-11-20T00:44:26;5.80;99.90
45108;DHT22;30869;51.188;6.556;2022-11-20T00:46:52;5.90;99.90
45108;DHT22;30869;51.188;6.556;2022-11-20T00:49:18;5.90;99.90
45108;DHT22;30869;51.188;6.556;2022-11-20T00:51:43;5.80;99.90
45108;DHT22;30869;51.188;6.556;2022-11-20T00:54:09;5.90;99.90
45108;DHT22;30869;51.188;6.556;2022-11-20T00:56:35;5.80;99.90
45108;DHT22;30869;51.188;6.556;2022-11-20T00:59:00;6.10;99.90
45108;DHT22;30869;51.188;6.556;2022-11-20T01:01:27;5.90;99.90
45108;DHT22;30869;51.188;6.556;2022-11-20T01:03:56;5.80;99.90
45108;DHT22;30869;51.188;6.556;2022-11-20T01:06:24;5.60;99.90
45108;DHT22;30869;51.188;6.556;2022-11-20T01:08:53;5.70;99.90
45108;DHT22;30869;51.188;6.556;2022-11-20T01:11:21;5.80;99.90
45108;DHT22;30869;51.188;6.556;2022-11-20T01:13:49;5.70;99.90
45108;DHT22;30869;51.188;6.556;2022-11-20T01:18:45;5.60;99.90
45108;DHT22;30869;51.188;6.556;2022-11-20T01:21:17;5.60;99.90
45108;DHT22;30869;51.188;6.556;2022-11-20T01:23:44;5.50;99.90
45108;DHT22;30869;51.188;6.556;2022-11-20T01:26:15;5.40;99.90
45108;DHT22;30869;51.188;6.556;2022-11-20T01:28:41;5.00;99.90
45108;DHT22;30869;51.188;6.556;2022-11-20T01:31:33;5.30;99.90
45108;DHT22;30869;51.188;6.556;2022-11-20T01:34:04;5.40;99.90
45108;DHT22;30869;51.188;6.556;2022-11-20T01:36:31;5.50;99.90
45108;DHT22;30869;51.188;6.556;2022-11-20T01:39:00;5.50;99.90
45108;DHT22;30869;51.188;6.556;2022-11-20T01:41:28;5.30;99.90
45108;DHT22;30869;51.188;6.556;2022-11-20T01:44:16;5.40;99.90
45108;DHT22;30869;51.188;6.556;2022-11-20T01:46:59;5.40;99.90
45108;DHT22;30869;51.188;6.556;2022-11-20T01:49:37;5.00;99.90
45108;DHT22;30869;51.188;6.556;2022-11-20T01:52:09;5.30;99.90
45108;DHT22;30869;51.188;6.556;2022-11-20T01:54:40;5.40;99.90
45108;DHT22;30869;51.188;6.556;2022-11-20T01:57:10;5.50;99.90
45108;DHT22;30869;51.188;6.556;2022-11-20T01:59:43;5.40;99.90
45108;DHT22;30869;51.188;6.556;2022-11-20T02:02:10;5.50;99.90
45108;DHT22;30869;51.188;6.556;2022-11-20T02:04:36;5.50;99.90
45108;DHT22;30869;51.188;6.556;2022-11-20T02:07:04;5.40;99.90
45108;DHT22;30869;51.188;6.556;2022-11-20T02:09:30;5.40;99.90
45108;DHT22;30869;51.188;6.556;2022-11-20T02:11:56;5.30;99.90
45108;DHT22;30869;51.188;6.556;2022-11-20T02:14:23;5.40;99.90
45108;DHT22;30869;51.188;6.556;2022-11-20T02:16:49;5.40;99.90
45108;DHT22;30869;51.188;6.556;2022-11-20T02:19:30;5.40;99.90
45108;DHT22;30869;51.188;6.556;2022-11-20T02:22:05;5.40;99.90
45108;DHT22;30869;51.188;6.556;2022-11-20T02:24:33;5.40;99.90
45108;DHT22;30869;51.188;6.556;2022-11-20T02:27:03;5.40;99.90
45108;DHT22;30869;51.188;6.556;2022-11-20T02:32:25;5.50;99.90
45108;DHT22;30869;51.188;6.556;2022-11-20T02:34:51;5.60;99.90
45108;DHT22;30869;51.188;6.556;2022-11-20T02:37:18;5.50;99.90
45108;DHT22;30869;51.188;6.556;2022-11-20T02:39:46;5.50;99.90
45108;DHT22;30869;51.188;6.556;2022-11-20T02:42:13;5.50;99.90
45108;DHT22;30869;51.188;6.556;2022-11-20T02:44:39;5.50;99.90
45108;DHT22;30869;51.188;6.556;2022-11-20T02:47:05;5.50;99.90
45108;DHT22;30869;51.188;6.556;2022-11-20T02:49:30;5.40;99.90
45108;DHT22;30869;51.188;6.556;2022-11-20T02:51:56;5.40;99.90
45108;DHT22;30869;51.188;6.556;2022-11-20T02:54:23;5.40;99.90
45108;DHT22;30869;51.188;6.556;2022-11-20T02:56:48;5.40;99.90
45108;DHT22;30869;51.188;6.556;2022-11-20T02:59:17;5.40;99.90
45108;DHT22;30869;51.188;6.556;2022-11-20T03:01:43;5.30;99.90
45108;DHT22;30869;51.188;6.556;2022-11-20T03:04:09;5.30;99.90
45108;DHT22;30869;51.188;6.556;2022-11-20T03:06:35;5.40;99.90
45108;DHT22;30869;51.188;6.556;2022-11-20T03:09:00;5.30;99.90
45108;DHT22;30869;51.188;6.556;2022-11-20T03:11:26;5.30;99.90
45108;DHT22;30869;51.188;6.556;2022-11-20T03:13:52;5.30;99.90
45108;DHT22;30869;51.188;6.556;2022-11-20T03:16:20;5.40;99.90
45108;DHT22;30869;51.188;6.556;2022-11-20T03:18:47;5.40;99.90
45108;DHT22;30869;51.188;6.556;2022-11-20T03:21:13;5.40;99.90
45108;DHT22;30869;51.188;6.556;2022-11-20T03:23:39;5.40;99.90
45108;DHT22;30869;51.188;6.556;2022-11-20T03:26:09;5.40;99.90
45108;DHT22;30869;51.188;6.556;2022-11-20T03:28:35;5.30;99.90
45108;DHT22;30869;51.188;6.556;2022-11-20T03:31:28;5.40;99.90
45108;DHT22;30869;51.188;6.556;2022-11-20T03:33:56;5.10;99.90
45108;DHT22;30869;51.188;6.556;2022-11-20T03:36:21;5.20;99.90
45108;DHT22;30869;51.188;6.556;2022-11-20T03:38:48;5.20;99.90
45108;DHT22;30869;51.188;6.556;2022-11-20T03:41:20;5.40;99.90
45108;DHT22;30869;51.188;6.556;2022-11-20T03:44:00;5.40;99.90
45108;DHT22;30869;51.188;6.556;2022-11-20T03:46:26;5.30;99.90
45108;DHT22;30869;51.188;6.556;2022-11-20T03:48:53;5.10;99.90
45108;DHT22;30869;51.188;6.556;2022-11-20T03:51:21;5.20;99.90
45108;DHT22;30869;51.188;6.556;2022-11-20T03:53:48;5.20;99.90
45108;DHT22;30869;51.188;6.556;2022-11-20T03:56:16;5.20;99.90
45108;DHT22;30869;51.188;6.556;2022-11-20T03:58:42;5.10;99.90
45108;DHT22;30869;51.188;6.556;2022-11-20T04:01:11;5.00;99.90
45108;DHT22;30869;51.188;6.556;2022-11-20T04:03:38;5.20;99.90
45108;DHT22;30869;51.188;6.556;2022-11-20T04:06:11;5.20;99.90
45108;DHT22;30869;51.188;6.556;2022-11-20T04:08:41;5.10;99.90
45108;DHT22;30869;51.188;6.556;2022-11-20T04:13:53;4.70;99.90
45108;DHT22;30869;51.188;6.556;2022-11-20T04:16:20;4.70;99.90
45108;DHT22;30869;51.188;6.556;2022-11-20T04:18:46;4.40;99.90
45108;DHT22;30869;51.188;6.556;2022-11-20T04:21:12;4.20;99.90
45108;DHT22;30869;51.188;6.556;2022-11-20T04:23:38;4.30;99.90
45108;DHT22;30869;51.188;6.556;2022-11-20T04:26:11;4.40;99.90
45108;DHT22;30869;51.188;6.556;2022-11-20T04:28:38;4.40;99.90
45108;DHT22;30869;51.188;6.556;2022-11-20T04:31:08;4.50;99.90
45108;DHT22;30869;51.188;6.556;2022-11-20T04:33:35;4.80;99.90
45108;DHT22;30869;51.188;6.556;2022-11-20T04:36:03;5.10;99.90
45108;DHT22;30869;51.188;6.556;2022-11-20T04:38:29;5.20;99.90
45108;DHT22;30869;51.188;6.556;2022-11-20T04:41:00;5.30;99.90
45108;DHT22;30869;51.188;6.556;2022-11-20T04:43:26;5.10;99.90
45108;DHT22;30869;51.188;6.556;2022-11-20T04:45:55;5.20;99.90
45108;DHT22;30869;51.188;6.556;2022-11-20T04:48:21;5.20;99.90
45108;DHT22;30869;51.188;6.556;2022-11-20T04:50:47;5.30;99.90
45108;DHT22;30869;51.188;6.556;2022-11-20T04:53:14;5.40;99.90
45108;DHT22;30869;51.188;6.556;2022-11-20T04:55:39;5.20;99.90
45108;DHT22;30869;51.188;6.556;2022-11-20T04:58:06;5.20;99.90
45108;DHT22;30869;51.188;6.556;2022-11-20T05:00:32;5.20;99.90
45108;DHT22;30869;51.188;6.556;2022-11-20T05:02:58;4.90;99.90
45108;DHT22;30869;51.188;6.556;2022-11-20T05:05:23;4.70;99.90
45108;DHT22;30869;51.188;6.556;2022-11-20T05:07:49;4.70;99.90
45108;DHT22;30869;51.188;6.556;2022-11-20T05:10:15;4.70;99.90
45108;DHT22;30869;51.188;6.556;2022-11-20T05:12:41;4.70;99.90
45108;DHT22;30869;51.188;6.556;2022-11-20T05:15:07;4.80;99.90
45108;DHT22;30869;51.188;6.556;2022-11-20T05:17:33;4.90;99.90
45108;DHT22;30869;51.188;6.556;2022-11-20T05:19:58;5.00;99.90
45108;DHT22;30869;51.188;6.556;2022-11-20T05:22:24;4.90;99.90
45108;DHT22;30869;51.188;6.556;2022-11-20T05:24:50;4.80;99.90
45108;DHT22;30869;51.188;6.556;2022-11-20T05:27:15;4.90;99.90
45108;DHT22;30869;51.188;6.556;2022-11-20T05:29:41;4.90;99.90
45108;DHT22;30869;51.188;6.556;2022-11-20T05:32:07;4.50;99.90
45108;DHT22;30869;51.188;6.556;2022-11-20T05:34:35;4.80;99.90
45108;DHT22;30869;51.188;6.556;2022-11-20T05:37:02;5.00;99.90
45108;DHT22;30869;51.188;6.556;2022-11-20T05:39:27;5.00;99.90
45108;DHT22;30869;51.188;6.556;2022-11-20T05:41:53;4.90;99.90
45108;DHT22;30869;51.188;6.556;2022-11-20T05:44:39;4.60;99.90
45108;DHT22;30869;51.188;6.556;2022-11-20T05:47:05;4.30;99.90
45108;DHT22;30869;51.188;6.556;2022-11-20T05:49:31;4.60;99.90
45108;DHT22;30869;51.188;6.556;2022-11-20T05:51:57;4.80;99.90
45108;DHT22;30869;51.188;6.556;2022-11-20T05:54:23;4.80;99.90
45108;DHT22;30869;51.188;6.556;2022-11-20T05:56:48;4.80;99.90
45108;DHT22;30869;51.188;6.556;2022-11-20T05:59:14;4.70;99.90
45108;DHT22;30869;51.188;6.556;2022-11-20T06:01:40;4.20;99.90
45108;DHT22;30869;51.188;6.556;2022-11-20T06:04:06;4.40;99.90
45108;DHT22;30869;51.188;6.556;2022-11-20T06:06:31;4.40;99.90
45108;DHT22;30869;51.188;6.556;2022-11-20T06:08:57;4.60;99.90
45108;DHT22;30869;51.188;6.556;2022-11-20T06:11:24;4.60;99.90
45108;DHT22;30869;51.188;6.556;2022-11-20T06:13:50;4.80;99.90
45108;DHT22;30869;51.188;6.556;2022-11-20T06:16:18;4.90;99.90
45108;DHT22;30869;51.188;6.556;2022-11-20T06:18:44;5.00;99.90
45108;DHT22;30869;51.188;6.556;2022-11-20T06:21:13;5.00;99.90
45108;DHT22;30869;51.188;6.556;2022-11-20T06:23:39;4.60;99.90
45108;DHT22;30869;51.188;6.556;2022-11-20T06:26:08;4.70;99.90
45108;DHT22;30869;51.188;6.556;2022-11-20T06:28:34;4.70;99.90
45108;DHT22;30869;51.188;6.556;2022-11-20T06:31:00;4.50;99.90
45108;DHT22;30869;51.188;6.556;2022-11-20T06:33:26;4.60;99.90
45108;DHT22;30869;51.188;6.556;2022-11-20T06:35:52;4.70;99.90
45108;DHT22;30869;51.188;6.556;2022-11-20T06:38:18;4.40;99.90
45108;DHT22;30869;51.188;6.556;2022-11-20T06:40:43;4.20;99.90
45108;DHT22;30869;51.188;6.556;2022-11-20T06:43:10;4.20;99.90
45108;DHT22;30869;51.188;6.556;2022-11-20T06:45:36;4.20;99.90
45108;DHT22;30869;51.188;6.556;2022-11-20T06:48:02;4.50;99.90
45108;DHT22;30869;51.188;6.556;2022-11-20T06:50:28;4.60;99.90
45108;DHT22;30869;51.188;6.556;2022-11-20T06:52:53;4.40;99.90
45108;DHT22;30869;51.188;6.556;2022-11-20T06:55:19;4.80;99.90
45108;DHT22;30869;51.188;6.556;2022-11-20T06:57:45;4.20;99.90
45108;DHT22;30869;51.188;6.556;2022-11-20T07:00:11;4.50;99.90
45108;DHT22;30869;51.188;6.556;2022-11-20T07:02:38;4.60;99.90
45108;DHT22;30869;51.188;6.556;2022-11-20T07:05:04;4.70;99.90
45108;DHT22;30869;51.188;6.556;2022-11-20T07:07:30;4.90;99.90
45108;DHT22;30869;51.188;6.556;2022-11-20T07:09:55;4.90;99.90
45108;DHT22;30869;51.188;6.556;2022-11-20T07:12:21;5.00;99.90
45108;DHT22;30869;51.188;6.556;2022-11-20T07:14:47;4.90;99.90
45108;DHT22;30869;51.188;6.556;2022-11-20T07:17:13;4.80;99.90
45108;DHT22;30869;51.188;6.556;2022-11-20T07:19:38;4.60;99.90
45108;DHT22;30869;51.188;6.556;2022-11-20T07:22:04;4.60;99.90
45108;DHT22;30869;51.188;6.556;2022-11-20T07:24:30;4.60;99.90
45108;DHT22;30869;51.188;6.556;2022-11-20T07:26:55;4.70;99.90
45108;DHT22;30869;51.188;6.556;2022-11-20T07:29:21;4.80;99.90
45108;DHT22;30869;51.188;6.556;2022-11-20T07:31:47;4.70;99.90
45108;DHT22;30869;51.188;6.556;2022-11-20T07:34:13;4.50;99.90
45108;DHT22;30869;51.188;6.556;2022-11-20T07:36:39;4.40;99.90
45108;DHT22;30869;51.188;6.556;2022-11-20T07:39:05;4.30;99.90
45108;DHT22;30869;51.188;6.556;2022-11-20T07:41:30;4.00;99.90
45108;DHT22;30869;51.188;6.556;2022-11-20T07:43:56;3.80;99.90
45108;DHT22;30869;51.188;6.556;2022-11-20T07:46:22;3.70;99.90
45108;DHT22;30869;51.188;6.556;2022-11-20T07:48:48;4.20;99.90
45108;DHT22;30869;51.188;6.556;2022-11-20T07:51:14;4.50;99.90
45108;DHT22;30869;51.188;6.556;2022-11-20T07:53:40;4.60;99.90
45108;DHT22;30869;51.188;6.556;2022-11-20T07:56:06;4.90;99.90
45108;DHT22;30869;51.188;6.556;2022-11-20T07:58:32;4.70;99.90
45108;DHT22;30869;51.188;6.556;2022-11-20T08:01:07;4.50;99.90
45108;DHT22;30869;51.188;6.556;2022-11-20T08:03:33;4.40;99.90
45108;DHT22;30869;51.188;6.556;2022-11-20T08:05:59;4.60;99.90
45108;DHT22;30869;51.188;6.556;2022-11-20T08:08:28;4.50;99.90
45108;DHT22;30869;51.188;6.556;2022-11-20T08:10:56;4.70;99.90
45108;DHT22;30869;51.188;6.556;2022-11-20T08:13:41;4.70;99.90
45108;DHT22;30869;51.188;6.556;2022-11-20T08:16:25;4.30;99.90
45108;DHT22;30869;51.188;6.556;2022-11-20T08:18:51;4.10;99.90
45108;DHT22;30869;51.188;6.556;2022-11-20T08:21:17;4.20;99.90
45108;DHT22;30869;51.188;6.556;2022-11-20T08:23:43;4.50;99.90
45108;DHT22;30869;51.188;6.556;2022-11-20T08:26:08;4.70;99.90
45108;DHT22;30869;51.188;6.556;2022-11-20T08:28:34;4.60;99.90
45108;DHT22;30869;51.188;6.556;2022-11-20T08:31:00;4.60;99.90
45108;DHT22;30869;51.188;6.556;2022-11-20T08:33:26;4.70;99.90
45108;DHT22;30869;51.188;6.556;2022-11-20T08:35:53;4.70;99.90
45108;DHT22;30869;51.188;6.556;2022-11-20T08:38:19;4.70;99.90
45108;DHT22;30869;51.188;6.556;2022-11-20T08:40:45;4.30;99.90
45108;DHT22;30869;51.188;6.556;2022-11-20T08:43:31;4.10;99.90
45108;DHT22;30869;51.188;6.556;2022-11-20T08:45:57;4.20;99.90
45108;DHT22;30869;51.188;6.556;2022-11-20T08:48:22;4.50;99.90
45108;DHT22;30869;51.188;6.556;2022-11-20T08:50:48;4.50;99.90
45108;DHT22;30869;51.188;6.556;2022-11-20T08:53:14;4.30;99.90
45108;DHT22;30869;51.188;6.556;2022-11-20T08:55:39;4.50;99.90
45108;DHT22;30869;51.188;6.556;2022-11-20T08:58:06;4.50;99.90
45108;DHT22;30869;51.188;6.556;2022-11-20T09:00:33;4.60;99.90
45108;DHT22;30869;51.188;6.556;2022-11-20T09:02:58;4.70;99.90
45108;DHT22;30869;51.188;6.556;2022-11-20T09:05:26;4.60;99.90
45108;DHT22;30869;51.188;6.556;2022-11-20T09:07:55;4.20;99.90
45108;DHT22;30869;51.188;6.556;2022-11-20T09:10:20;3.90;99.90
45108;DHT22;30869;51.188;6.556;2022-11-20T09:12:48;3.80;99.90
45108;DHT22;30869;51.188;6.556;2022-11-20T09:15:14;4.00;99.90
45108;DHT22;30869;51.188;6.556;2022-11-20T09:17:40;4.00;99.90
45108;DHT22;30869;51.188;6.556;2022-11-20T09:20:06;4.20;99.90
45108;DHT22;30869;51.188;6.556;2022-11-20T09:22:32;4.30;99.90
45108;DHT22;30869;51.188;6.556;2022-11-20T09:24:58;4.50;99.90
45108;DHT22;30869;51.188;6.556;2022-11-20T09:27:23;4.50;99.90
45108;DHT22;30869;51.188;6.556;2022-11-20T09:29:49;4.50;99.90
45108;DHT22;30869;51.188;6.556;2022-11-20T09:32:15;4.50;99.90
45108;DHT22;30869;51.188;6.556;2022-11-20T09:34:40;4.60;99.90
45108;DHT22;30869;51.188;6.556;2022-11-20T09:37:06;4.70;99.90
45108;DHT22;30869;51.188;6.556;2022-11-20T09:39:32;4.80;99.90
45108;DHT22;30869;51.188;6.556;2022-11-20T09:42:20;4.50;99.90
45108;DHT22;30869;51.188;6.556;2022-11-20T09:45:13;4.50;99.90
45108;DHT22;30869;51.188;6.556;2022-11-20T09:48:05;4.40;99.90
45108;DHT22;30869;51.188;6.556;2022-11-20T09:50:39;4.50;99.90
45108;DHT22;30869;51.188;6.556;2022-11-20T09:53:32;4.60;99.90
45108;DHT22;30869;51.188;6.556;2022-11-20T09:56:01;4.80;99.90
45108;DHT22;30869;51.188;6.556;2022-11-20T09:58:42;4.90;99.90
45108;DHT22;30869;51.188;6.556;2022-11-20T10:01:25;4.90;99.90
45108;DHT22;30869;51.188;6.556;2022-11-20T10:04:33;4.90;99.90
45108;DHT22;30869;51.188;6.556;2022-11-20T10:07:13;4.90;99.90
45108;DHT22;30869;51.188;6.556;2022-11-20T10:09:49;5.10;99.90
45108;DHT22;30869;51.188;6.556;2022-11-20T10:20:41;4.70;99.90
45108;DHT22;30869;51.188;6.556;2022-11-20T10:23:28;4.70;99.90
45108;DHT22;30869;51.188;6.556;2022-11-20T10:26:00;4.70;99.90
45108;DHT22;30869;51.188;6.556;2022-11-20T10:31:06;4.60;99.90
45108;DHT22;30869;51.188;6.556;2022-11-20T10:33:36;4.70;99.90
45108;DHT22;30869;51.188;6.556;2022-11-20T10:39:04;4.50;99.90
45108;DHT22;30869;51.188;6.556;2022-11-20T10:41:34;4.50;99.90
45108;DHT22;30869;51.188;6.556;2022-11-20T10:44:10;4.60;99.90
45108;DHT22;30869;51.188;6.556;2022-11-20T10:46:44;4.80;99.90
45108;DHT22;30869;51.188;6.556;2022-11-20T10:49:16;4.90;99.90
45108;DHT22;30869;51.188;6.556;2022-11-20T10:51:52;4.80;99.90
45108;DHT22;30869;51.188;6.556;2022-11-20T11:00:10;5.80;99.90
45108;DHT22;30869;51.188;6.556;2022-11-20T11:02:52;6.00;99.90
45108;DHT22;30869;51.188;6.556;2022-11-20T11:08:00;6.00;99.90
45108;DHT22;30869;51.188;6.556;2022-11-20T11:10:36;6.10;99.90
45108;DHT22;30869;51.188;6.556;2022-11-20T11:13:06;6.20;99.90
45108;DHT22;30869;51.188;6.556;2022-11-20T11:15:39;5.90;99.90
45108;DHT22;30869;51.188;6.556;2022-11-20T11:18:08;5.60;99.90
45108;DHT22;30869;51.188;6.556;2022-11-20T11:20:34;5.60;99.90
45108;DHT22;30869;51.188;6.556;2022-11-20T11:23:00;5.40;99.90
45108;DHT22;30869;51.188;6.556;2022-11-20T11:25:31;5.20;99.90
45108;DHT22;30869;51.188;6.556;2022-11-20T11:28:01;5.50;99.90
45108;DHT22;30869;51.188;6.556;2022-11-20T11:30:29;5.80;99.90
45108;DHT22;30869;51.188;6.556;2022-11-20T11:33:09;5.70;99.90
45108;DHT22;30869;51.188;6.556;2022-11-20T11:35:43;6.10;99.90
45108;DHT22;30869;51.188;6.556;2022-11-20T11:38:16;5.90;99.90
45108;DHT22;30869;51.188;6.556;2022-11-20T11:40:43;5.70;99.90
45108;DHT22;30869;51.188;6.556;2022-11-20T11:43:31;5.40;99.90
45108;DHT22;30869;51.188;6.556;2022-11-20T11:46:33;5.30;99.90
45108;DHT22;30869;51.188;6.556;2022-11-20T11:51:39;5.40;99.90
45108;DHT22;30869;51.188;6.556;2022-11-20T11:54:19;5.20;99.90
45108;DHT22;30869;51.188;6.556;2022-11-20T11:56:45;5.10;99.90
45108;DHT22;30869;51.188;6.556;2022-11-20T11:59:20;5.40;99.90
45108;DHT22;30869;51.188;6.556;2022-11-20T12:02:02;5.60;99.90
45108;DHT22;30869;51.188;6.556;2022-11-20T12:04:48;5.80;99.90
45108;DHT22;30869;51.188;6.556;2022-11-20T12:07:27;5.60;99.90
45108;DHT22;30869;51.188;6.556;2022-11-20T12:09:56;5.40;99.90
45108;DHT22;30869;51.188;6.556;2022-11-20T12:12:29;5.20;99.90
45108;DHT22;30869;51.188;6.556;2022-11-20T12:14:58;5.20;99.90
45108;DHT22;30869;51.188;6.556;2022-11-20T12:17:24;5.20;99.90
45108;DHT22;30869;51.188;6.556;2022-11-20T12:19:50;5.20;99.90
45108;DHT22;30869;51.188;6.556;2022-11-20T12:22:23;5.40;99.90
45108;DHT22;30869;51.188;6.556;2022-11-20T12:25:07;5.40;99.90
45108;DHT22;30869;51.188;6.556;2022-11-20T12:30:25;5.70;99.90
45108;DHT22;30869;51.188;6.556;2022-11-20T12:50:46;5.50;99.90
45108;DHT22;30869;51.188;6.556;2022-11-20T12:53:43;5.40;99.90
45108;DHT22;30869;51.188;6.556;2022-11-20T13:01:56;5.60;99.90
45108;DHT22;30869;51.188;6.556;2022-11-20T13:04:45;5.30;99.90
45108;DHT22;30869;51.188;6.556;2022-11-20T13:07:16;5.40;99.90
45108;DHT22;30869;51.188;6.556;2022-11-20T13:09:45;5.10;99.90
45108;DHT22;30869;51.188;6.556;2022-11-20T13:17:58;5.30;99.90
45108;DHT22;30869;51.188;6.556;2022-11-20T13:20:28;5.30;99.90
45108;DHT22;30869;51.188;6.556;2022-11-20T13:22:55;5.20;99.90
45108;DHT22;30869;51.188;6.556;2022-11-20T13:25:30;5.30;99.90
45108;DHT22;30869;51.188;6.556;2022-11-20T13:27:59;5.40;99.90
45108;DHT22;30869;51.188;6.556;2022-11-20T13:30:26;5.40;99.90
45108;DHT22;30869;51.188;6.556;2022-11-20T13:32:59;5.40;99.90
45108;DHT22;30869;51.188;6.556;2022-11-20T13:35:27;5.40;99.90
45108;DHT22;30869;51.188;6.556;2022-11-20T13:38:19;5.30;99.90
45108;DHT22;30869;51.188;6.556;2022-11-20T13:40:59;5.40;99.90
45108;DHT22;30869;51.188;6.556;2022-11-20T13:43:47;5.50;99.90
45108;DHT22;30869;51.188;6.556;2022-11-20T13:46:13;5.40;99.90
45108;DHT22;30869;51.188;6.556;2022-11-20T13:48:47;5.50;99.90
45108;DHT22;30869;51.188;6.556;2022-11-20T13:53:54;5.30;99.90
45108;DHT22;30869;51.188;6.556;2022-11-20T13:56:48;5.30;99.90
45108;DHT22;30869;51.188;6.556;2022-11-20T13:59:39;5.30;99.90
45108;DHT22;30869;51.188;6.556;2022-11-20T14:02:14;5.30;99.90
45108;DHT22;30869;51.188;6.556;2022-11-20T14:04:44;5.10;99.90
45108;DHT22;30869;51.188;6.556;2022-11-20T14:07:11;5.20;99.90
45108;DHT22;30869;51.188;6.556;2022-11-20T14:09:37;5.40;99.90
45108;DHT22;30869;51.188;6.556;2022-11-20T14:12:12;5.50;99.90
45108;DHT22;30869;51.188;6.556;2022-11-20T14:14:51;5.60;99.90
45108;DHT22;30869;51.188;6.556;2022-11-20T14:17:24;5.70;99.90
45108;DHT22;30869;51.188;6.556;2022-11-20T14:19:58;5.60;99.90
45108;DHT22;30869;51.188;6.556;2022-11-20T14:22:26;5.40;99.90
45108;DHT22;30869;51.188;6.556;2022-11-20T14:25:06;5.40;99.90
45108;DHT22;30869;51.188;6.556;2022-11-20T14:27:40;5.50;99.90
45108;DHT22;30869;51.188;6.556;2022-11-20T14:30:17;5.50;99.90
45108;DHT22;30869;51.188;6.556;2022-11-20T14:32:45;5.50;99.90
45108;DHT22;30869;51.188;6.556;2022-11-20T14:35:27;5.50;99.90
45108;DHT22;30869;51.188;6.556;2022-11-20T14:37:55;5.40;99.90
45108;DHT22;30869;51.188;6.556;2022-11-20T14:40:32;5.40;99.90
45108;DHT22;30869;51.188;6.556;2022-11-20T14:43:15;5.40;99.90
45108;DHT22;30869;51.188;6.556;2022-11-20T14:45:42;5.40;99.90
45108;DHT22;30869;51.188;6.556;2022-11-20T14:48:09;5.30;99.90
45108;DHT22;30869;51.188;6.556;2022-11-20T14:50:37;5.40;99.90
45108;DHT22;30869;51.188;6.556;2022-11-20T14:53:03;5.40;99.90
45108;DHT22;30869;51.188;6.556;2022-11-20T14:55:37;5.40;99.90
45108;DHT22;30869;51.188;6.556;2022-11-20T14:58:05;5.40;99.90
45108;DHT22;30869;51.188;6.556;2022-11-20T15:00:33;5.40;99.90
45108;DHT22;30869;51.188;6.556;2022-11-20T15:02:59;5.40;99.90
45108;DHT22;30869;51.188;6.556;2022-11-20T15:05:45;5.40;99.90
45108;DHT22;30869;51.188;6.556;2022-11-20T15:08:12;5.40;99.90
45108;DHT22;30869;51.188;6.556;2022-11-20T15:10:39;5.40;99.90
45108;DHT22;30869;51.188;6.556;2022-11-20T15:13:13;5.50;99.90
45108;DHT22;30869;51.188;6.556;2022-11-20T15:15:54;5.50;99.90
45108;DHT22;30869;51.188;6.556;2022-11-20T15:18:28;5.50;99.90
45108;DHT22;30869;51.188;6.556;2022-11-20T15:21:01;5.50;99.90
45108;DHT22;30869;51.188;6.556;2022-11-20T15:23:28;5.60;99.90
45108;DHT22;30869;51.188;6.556;2022-11-20T15:25:54;5.50;99.90
45108;DHT22;30869;51.188;6.556;2022-11-20T15:28:41;5.50;99.90
45108;DHT22;30869;51.188;6.556;2022-11-20T15:31:11;5.50;99.90
45108;DHT22;30869;51.188;6.556;2022-11-20T15:33:38;5.70;99.90
45108;DHT22;30869;51.188;6.556;2022-11-20T15:36:03;5.50;99.90
45108;DHT22;30869;51.188;6.556;2022-11-20T15:38:29;5.40;99.90
45108;DHT22;30869;51.188;6.556;2022-11-20T15:40:55;5.40;99.90
45108;DHT22;30869;51.188;6.556;2022-11-20T15:43:21;5.30;99.90
45108;DHT22;30869;51.188;6.556;2022-11-20T15:46:16;5.40;99.90
45108;DHT22;30869;51.188;6.556;2022-11-20T15:48:43;5.30;99.90
45108;DHT22;30869;51.188;6.556;2022-11-20T15:53:36;5.20;99.90
45108;DHT22;30869;51.188;6.556;2022-11-20T15:56:02;5.20;99.90
45108;DHT22;30869;51.188;6.556;2022-11-20T15:58:28;5.20;99.90
45108;DHT22;30869;51.188;6.556;2022-11-20T16:00:54;5.20;99.90
45108;DHT22;30869;51.188;6.556;2022-11-20T16:03:20;5.20;99.90
45108;DHT22;30869;51.188;6.556;2022-11-20T16:05:46;5.20;99.90
45108;DHT22;30869;51.188;6.556;2022-11-20T16:08:12;5.10;99.90
45108;DHT22;30869;51.188;6.556;2022-11-20T16:10:38;5.30;99.90
45108;DHT22;30869;51.188;6.556;2022-11-20T16:13:10;5.30;99.90
45108;DHT22;30869;51.188;6.556;2022-11-20T16:15:57;5.20;99.90
45108;DHT22;30869;51.188;6.556;2022-11-20T16:18:24;5.20;99.90
45108;DHT22;30869;51.188;6.556;2022-11-20T16:20:52;5.20;99.90
45108;DHT22;30869;51.188;6.556;2022-11-20T16:23:18;5.20;99.90
45108;DHT22;30869;51.188;6.556;2022-11-20T16:25:44;5.10;99.90
45108;DHT22;30869;51.188;6.556;2022-11-20T16:28:11;5.20;99.90
45108;DHT22;30869;51.188;6.556;2022-11-20T16:30:37;5.20;99.90
45108;DHT22;30869;51.188;6.556;2022-11-20T16:33:03;5.20;99.90
45108;DHT22;30869;51.188;6.556;2022-11-20T16:35:47;5.20;99.90
45108;DHT22;30869;51.188;6.556;2022-11-20T16:38:13;5.30;99.90
45108;DHT22;30869;51.188;6.556;2022-11-20T16:43:53;5.30;99.90
45108;DHT22;30869;51.188;6.556;2022-11-20T16:46:21;5.30;99.90
45108;DHT22;30869;51.188;6.556;2022-11-20T16:48:55;5.40;99.90
45108;DHT22;30869;51.188;6.556;2022-11-20T16:54:24;5.40;99.90
45108;DHT22;30869;51.188;6.556;2022-11-20T16:56:50;5.40;99.90
45108;DHT22;30869;51.188;6.556;2022-11-20T16:59:18;5.30;99.90
45108;DHT22;30869;51.188;6.556;2022-11-20T17:01:44;5.30;99.90
45108;DHT22;30869;51.188;6.556;2022-11-20T17:04:10;5.40;99.90
45108;DHT22;30869;51.188;6.556;2022-11-20T17:06:37;5.50;99.90
45108;DHT22;30869;51.188;6.556;2022-11-20T17:09:04;5.40;99.90
45108;DHT22;30869;51.188;6.556;2022-11-20T17:11:31;5.40;99.90
45108;DHT22;30869;51.188;6.556;2022-11-20T17:13:58;5.50;99.90
45108;DHT22;30869;51.188;6.556;2022-11-20T17:16:28;5.50;99.90